Time;durP1;ratioP1;P1;durP2;ratioP2;P2;SDS_P1;SDS_P2;PMS_P1;PMS_P2;Temp;Humidity;BMP_temperature;BMP_pressure;BME280_temperature;BME280_humidity;BME280_pressure;Samples;Min_cycle;Max_cycle;Signal;HPM_P1;HPM_P2
2022/09/04 00:02:29;;;;;;;3.07;3.07;;;;;;;15.47;100.00;65819.53;5116293;28;20266;-70
2022/09/04 00:04:58;;;;;;;3.77;3.57;;;;;;;15.45;100.00;65806.84;5115860;28;20204;-70
2022/09/04 00:07:38;;;;;;;4.53;4.23;;;;;;;15.42;100.00;65806.13;5114524;28;20229;-71
2022/09/04 00:10:38;;;;;;;3.47;3.47;;;;;;;15.40;100.00;65807.06;5116051;28;20201;-70
2022/09/04 00:13:11;;;;;;;4.80;4.50;;;;;;;15.36;100.00;65794.22;5116002;28;20177;-70
2022/09/04 00:15:43;;;;;;;3.40;3.40;;;;;;;15.31;100.00;65791.28;5115984;28;20197;-70
2022/09/04 00:18:16;;;;;;;3.47;3.17;;;;;;;15.33;100.00;65791.44;5115509;28;20282;-70
2022/09/04 00:20:52;;;;;;;3.40;3.40;;;;;;;15.28;100.00;65790.53;5115584;28;20238;-70
2022/09/04 00:23:40;;;;;;;3.67;3.67;;;;;;;15.27;100.00;65786.81;5115245;28;20209;-70
2022/09/04 00:26:53;;;;;;;3.60;3.50;;;;;;;15.28;100.00;65788.47;5115759;28;20197;-70
2022/09/04 00:29:41;;;;;;;3.73;3.73;;;;;;;15.17;100.00;65775.69;5084672;28;20410;-70
2022/09/04 00:32:33;;;;;;;3.17;3.17;;;;;;;15.14;100.00;65778.13;5115324;28;20204;-70
2022/09/04 00:35:33;;;;;;;3.70;3.70;;;;;;;15.09;100.00;65767.91;5115000;28;20181;-70
2022/09/04 00:38:30;;;;;;;3.90;3.80;;;;;;;14.95;100.00;65754.94;5115144;28;20258;-70
2022/09/04 00:41:15;;;;;;;3.93;3.93;;;;;;;14.93;100.00;65750.09;5115448;28;20177;-70
2022/09/04 00:44:07;;;;;;;3.87;3.87;;;;;;;14.90;100.00;65751.97;5115126;28;20249;-70
2022/09/04 00:46:53;;;;;;;4.30;4.10;;;;;;;14.96;100.00;65752.88;5115273;28;20198;-71
2022/09/04 00:49:44;;;;;;;4.17;4.17;;;;;;;14.96;100.00;65763.88;5114715;28;20207;-70
2022/09/04 00:52:53;;;;;;;3.70;3.70;;;;;;;14.89;100.00;65745.63;5114643;28;20169;-70
2022/09/04 00:55:37;;;;;;;4.00;4.00;;;;;;;14.86;100.00;65744.94;5114572;28;20181;-70
2022/09/04 00:58:26;;;;;;;3.90;3.90;;;;;;;14.84;100.00;65740.06;5114611;28;20302;-70
2022/09/04 01:00:56;;;;;;;3.67;3.67;;;;;;;14.84;100.00;65745.84;5114757;28;20214;-70
2022/09/04 01:03:40;;;;;;;3.93;3.93;;;;;;;14.87;100.00;65751.25;5114761;28;20590;-70
2022/09/04 01:06:41;;;;;;;3.40;3.40;;;;;;;14.83;100.00;65744.75;5114445;28;20173;-70
2022/09/04 01:09:30;;;;;;;3.90;3.90;;;;;;;14.77;100.00;65730.22;5114680;28;20197;-70
2022/09/04 01:12:26;;;;;;;3.97;3.80;;;;;;;14.74;100.00;65729.50;5114235;28;20224;-70
2022/09/04 01:15:13;;;;;;;3.70;3.70;;;;;;;14.72;100.00;65729.91;5114256;28;20255;-70
2022/09/04 01:17:58;;;;;;;4.60;4.50;;;;;;;14.66;100.00;65723.22;5114008;28;20209;-71
2022/09/04 01:20:51;;;;;;;4.20;4.20;;;;;;;14.65;100.00;65719.50;5114399;28;20682;-70
2022/09/04 01:23:55;;;;;;;4.53;4.53;;;;;;;14.67;100.00;65723.78;5114467;28;20588;-70
2022/09/04 01:26:29;;;;;;;4.60;4.60;;;;;;;14.64;100.00;65723.59;5114347;28;20177;-70
2022/09/04 01:29:11;;;;;;;6.00;4.60;;;;;;;;;;5114630;28;20671;-70
2022/09/04 01:31:52;;;;;;;4.87;4.87;;;;;;;14.50;100.00;65706.00;5114254;28;20223;-70
2022/09/04 01:34:38;;;;;;;5.13;5.03;;;;;;;14.48;100.00;65697.97;5114246;28;20615;-70
2022/09/04 01:37:42;;;;;;;4.87;4.77;;;;;;;14.37;100.00;65694.13;5114442;28;20284;-70
2022/09/04 01:40:27;;;;;;;4.73;4.70;;;;;;;;;;5113846;28;20254;-70
2022/09/04 01:43:12;;;;;;;10.20;4.57;;;;;;;14.40;100.00;65696.88;5114172;28;20178;-70
2022/09/04 01:46:07;;;;;;;5.57;5.47;;;;;;;14.43;100.00;65700.78;5114144;28;20658;-70
2022/09/04 01:48:41;;;;;;;8.40;4.97;;;;;;;;;;5114293;28;20303;-70
2022/09/04 01:51:27;;;;;;;5.43;5.30;;;;;;;14.33;100.00;65684.44;5114371;28;20209;-70
2022/09/04 01:54:02;;;;;;;4.80;4.80;;;;;;;14.28;100.00;65681.47;5114063;28;20595;-70
2022/09/04 01:56:46;;;;;;;4.97;4.87;;;;;;;;;;5113672;28;20260;-70
2022/09/04 01:59:18;;;;;;;5.27;5.17;;;;;;;;;;5113582;28;20633;-70
2022/09/04 02:02:04;;;;;;;5.10;5.00;;;;;;;;;;5113982;28;20201;-70
2022/09/04 02:04:47;;;;;;;5.73;5.53;;;;;;;14.25;100.00;65673.47;5113935;28;20541;-70
2022/09/04 02:07:34;;;;;;;5.10;4.97;;;;;;;;;;5113757;28;20240;-70
2022/09/04 02:10:21;;;;;;;5.23;5.13;;;;;;;14.19;100.00;65671.47;5113861;28;20268;-70
2022/09/04 02:13:12;;;;;;;5.17;5.17;;;;;;;14.18;100.00;65665.69;5113926;28;20205;-70
2022/09/04 02:15:58;;;;;;;5.80;5.70;;;;;;;14.14;100.00;65669.06;5113844;28;20209;-70
2022/09/04 02:18:31;;;;;;;4.67;4.37;;;;;;;14.14;100.00;65676.91;5113486;28;20213;-71
2022/09/04 02:21:11;;;;;;;5.17;5.17;;;;;;;14.15;100.00;65664.44;5114092;28;20204;-70
2022/09/04 02:23:53;;;;;;;4.63;4.33;;;;;;;14.09;100.00;65663.53;5113805;28;20205;-70
2022/09/04 02:26:28;;;;;;;5.80;5.80;;;;;;;14.08;100.00;65661.88;5113808;28;20201;-70
2022/09/04 02:29:05;;;;;;;6.37;6.27;;;;;;;14.05;100.00;65654.41;5113711;28;20201;-70
2022/09/04 02:31:50;;;;;;;5.77;5.67;;;;;;;;;;5117716;28;20199;-70
2022/09/04 02:34:45;;;;;;;6.40;6.20;;;;;;;13.98;100.00;65646.06;5117408;28;20180;-70
2022/09/04 02:37:26;;;;;;;6.77;6.47;;;;;;;13.94;100.00;65652.06;5117628;28;20244;-70
2022/09/04 02:40:02;;;;;;;6.97;6.77;;;;;;;13.87;100.00;65637.00;5117753;28;20235;-70
2022/09/04 02:42:45;;;;;;;6.57;6.47;;;;;;;13.88;100.00;65634.97;5117501;28;20181;-70
2022/09/04 02:45:32;;;;;;;6.50;6.30;;;;;;;13.87;100.00;65639.63;5117470;28;20256;-70
2022/09/04 02:48:14;;;;;;;6.37;6.27;;;;;;;13.87;100.00;65633.84;5117084;28;20216;-70
2022/09/04 02:51:02;;;;;;;6.53;6.43;;;;;;;13.87;100.00;65631.81;5117074;28;20208;-70
2022/09/04 02:53:59;;;;;;;7.20;7.00;;;;;;;13.87;100.00;65633.84;5117036;28;20201;-70
2022/09/04 02:56:59;;;;;;;7.10;6.60;;;;;;;13.86;100.00;65633.31;5116889;28;20181;-70
2022/09/04 02:59:46;;;;;;;5.50;5.40;;;;;;;13.85;100.00;65637.38;5098519;28;20205;-70
2022/09/04 03:02:34;;;;;;;6.40;6.30;;;;;;;13.83;100.00;65629.94;5116862;28;20542;-70
2022/09/04 03:05:19;;;;;;;7.30;6.50;;;;;;;13.80;100.00;65629.22;5116801;28;20216;-70
2022/09/04 03:07:57;;;;;;;6.67;5.83;;;;;;;13.72;100.00;65620.34;5116708;28;20651;-70
2022/09/04 03:10:47;;;;;;;6.07;5.93;;;;;;;13.67;100.00;65615.34;5116850;28;20189;-70
2022/09/04 03:13:22;;;;;;;6.23;6.03;;;;;;;13.69;100.00;65614.38;5117211;28;20197;-70
2022/09/04 03:16:14;;;;;;;6.23;6.13;;;;;;;13.66;100.00;65611.06;5116863;28;20180;-70
2022/09/04 03:18:53;;;;;;;6.30;6.10;;;;;;;13.60;100.00;65607.00;5116436;28;20207;-70
2022/09/04 03:21:29;;;;;;;6.10;6.00;;;;;;;13.52;100.00;65601.28;5116746;28;20271;-70
2022/09/04 03:24:09;;;;;;;6.17;6.07;;;;;;;13.45;100.00;65588.28;5116779;28;20211;-70
2022/09/04 03:26:42;;;;;;;6.20;5.97;;;;;;;13.37;100.00;65579.41;5116593;28;20201;-71
2022/09/04 03:29:36;;;;;;;6.40;6.20;;;;;;;13.21;100.00;65567.38;5116922;28;20608;-70
2022/09/04 03:32:40;;;;;;;7.10;6.90;;;;;;;13.19;100.00;65565.69;5116559;28;20208;-70
2022/09/04 03:35:25;;;;;;;6.57;6.47;;;;;;;13.14;100.00;65554.34;5116228;28;20588;-70
2022/09/04 03:38:28;;;;;;;6.70;6.50;;;;;;;13.15;100.00;65560.69;5116080;28;20234;-70
2022/09/04 03:41:25;;;;;;;6.13;6.03;;;;;;;13.14;100.00;65559.56;5115534;28;20595;-70
2022/09/04 03:44:17;;;;;;;7.43;7.17;;;;;;;13.12;100.00;65554.75;5116893;28;20562;-70
2022/09/04 03:47:13;;;;;;;6.87;6.67;;;;;;;13.12;100.00;65550.09;5116190;28;20209;-70
2022/09/04 03:50:04;;;;;;;6.93;6.77;;;;;;;13.11;100.00;65554.19;5115946;28;20186;-70
2022/09/04 03:53:02;;;;;;;7.53;6.73;;;;;;;13.07;100.00;65547.13;5116441;28;20256;-70
2022/09/04 03:56:06;;;;;;;6.20;6.10;;;;;;;13.12;100.00;65557.91;5116124;28;20575;-70
2022/09/04 03:58:42;;;;;;;7.50;7.20;;;;;;;13.12;100.00;65568.34;5115761;28;20311;-70
2022/09/04 04:01:14;;;;;;;6.87;6.57;;;;;;;13.09;100.00;65546.22;5115666;28;20260;-70
2022/09/04 04:03:56;;;;;;;5.80;5.80;;;;;;;13.07;100.00;65544.53;5116225;28;20209;-70
2022/09/04 04:06:25;;;;;;;6.70;6.43;;;;;;;;;;5115862;28;20231;-70
2022/09/04 04:09:10;;;;;;;7.73;7.10;;;;;;;13.12;100.00;65550.09;5115821;28;20201;-70
2022/09/04 04:11:49;;;;;;;6.67;6.50;;;;;;;13.09;100.00;65551.44;5097488;28;20185;-70
2022/09/04 04:14:37;;;;;;;6.77;6.53;;;;;;;;;;5115474;28;20193;-70
2022/09/04 04:17:18;;;;;;;6.57;6.37;;;;;;;13.02;100.00;65543.66;5115541;28;20623;-70
2022/09/04 04:20:10;;;;;;;7.03;6.93;;;;;;;13.01;100.00;65540.50;5115861;28;20205;-70
2022/09/04 04:22:49;;;;;;;6.63;6.53;;;;;;;13.01;100.00;65539.94;5115586;28;20201;-70
2022/09/04 04:25:32;;;;;;;6.13;5.93;;;;;;;12.97;100.00;65538.66;5115544;28;20170;-70
2022/09/04 04:28:23;;;;;;;9.10;6.57;;;;;;;12.91;100.00;65535.13;5115684;28;20220;-70
2022/09/04 04:30:52;;;;;;;7.63;6.57;;;;;;;12.88;100.00;65539.63;5115117;28;20181;-70
2022/09/04 04:33:32;;;;;;;6.73;6.43;;;;;;;12.87;100.00;65530.16;5115674;28;20204;-70
2022/09/04 04:36:26;;;;;;;6.43;6.33;;;;;;;12.86;100.00;65521.22;5115339;28;20532;-70
2022/09/04 04:39:17;;;;;;;9.63;6.10;;;;;;;12.84;100.00;65527.34;5114983;28;20183;-70
2022/09/04 04:42:05;;;;;;;6.73;6.63;;;;;;;12.86;100.00;65523.84;5114924;28;20582;-70
2022/09/04 04:48:00;;;;;;;7.23;6.80;;;;;;;12.73;100.00;65509.94;5114816;28;20239;-70
2022/09/04 04:50:39;;;;;;;6.40;6.30;;;;;;;12.71;100.00;65512.91;5077405;28;20224;-70
2022/09/04 04:53:24;;;;;;;6.33;6.23;;;;;;;12.66;100.00;65502.72;5114273;28;20591;-70
2022/09/04 04:56:03;;;;;;;6.30;5.93;;;;;;;;;;5114936;28;20197;-70
2022/09/04 04:58:54;;;;;;;7.77;7.30;;;;;;;12.62;100.00;65502.94;5114589;28;20224;-70
2022/09/04 05:01:41;;;;;;;10.87;7.27;;;;;;;12.58;100.00;65496.44;5114659;28;20699;-70
2022/09/04 05:04:35;;;;;;;6.17;5.97;;;;;;;12.55;100.00;65489.94;5115053;28;20169;-70
2022/09/04 05:07:16;;;;;;;6.83;6.57;;;;;;;12.51;100.00;65488.13;5114366;28;20216;-70
2022/09/04 05:09:55;;;;;;;7.43;7.13;;;;;;;12.47;100.00;65483.69;5114605;28;20623;-70
2022/09/04 05:12:47;;;;;;;8.20;7.57;;;;;;;12.46;100.00;65485.72;5114198;28;20225;-70
2022/09/04 05:15:27;;;;;;;8.93;8.47;;;;;;;12.44;100.00;65482.94;5114241;28;20197;-70
2022/09/04 05:18:03;;;;;;;8.77;8.10;;;;;;;12.46;100.00;65485.16;5114446;28;20266;-70
2022/09/04 05:20:29;;;;;;;7.23;6.97;;;;;;;;;;5114439;28;20553;-70
2022/09/04 05:23:11;;;;;;;8.50;8.10;;;;;;;12.57;100.00;65492.16;5114378;28;20666;-70
2022/09/04 05:25:44;;;;;;;8.73;8.03;;;;;;;12.60;100.00;65500.72;5114408;28;20173;-70
2022/09/04 05:28:29;;;;;;;8.77;7.83;;;;;;;12.65;100.00;65501.06;5114317;28;20251;-70
2022/09/04 05:31:15;;;;;;;11.37;8.03;;;;;;;12.70;100.00;65509.22;5114357;28;20212;-70
2022/09/04 05:33:54;;;;;;;8.37;7.87;;;;;;;12.77;100.00;65511.78;5114607;28;20256;-70
2022/09/04 05:36:40;;;;;;;7.40;7.00;;;;;;;12.83;100.00;65525.69;5114259;28;20183;-70
2022/09/04 05:39:27;;;;;;;7.73;7.37;;;;;;;12.85;100.00;65523.25;5113943;28;20231;-70
2022/09/04 05:42:21;;;;;;;8.27;7.80;;;;;;;12.92;100.00;65538.28;5114214;28;20173;-70
2022/09/04 05:45:02;;;;;;;9.03;8.20;;;;;;;12.99;100.00;65538.25;5067090;28;20238;-70
2022/09/04 05:47:46;;;;;;;9.90;7.60;;;;;;;13.08;100.00;65550.31;5114054;28;20740;-70
2022/09/04 05:50:29;;;;;;;8.30;7.77;;;;;;;13.13;100.00;65553.25;5114356;28;20196;-70
2022/09/04 05:53:14;;;;;;;9.23;8.83;;;;;;;13.21;100.00;65567.94;5114036;28;20177;-70
2022/09/04 05:56:11;;;;;;;8.60;8.10;;;;;;;13.35;100.00;65577.16;5113750;28;20220;-70
2022/09/04 05:58:53;;;;;;;9.40;8.77;;;;;;;13.51;100.00;65600.16;5113592;28;20213;-70
2022/09/04 06:02:00;;;;;;;8.57;8.10;;;;;;;13.64;100.00;65609.38;5113598;28;20284;-70
2022/09/04 06:04:59;;;;;;;9.03;8.60;;;;;;;13.79;100.00;65617.69;5114571;28;20260;-70
2022/09/04 06:07:46;;;;;;;8.43;8.00;;;;;;;13.91;100.00;65638.28;5118005;28;20208;-70
2022/09/04 06:10:31;;;;;;;7.50;7.30;;;;;;;;;;5118416;28;20242;-69
2022/09/04 06:13:30;;;;;;;8.13;7.80;;;;;;;14.17;100.00;65669.25;5118086;28;20201;-69
2022/09/04 06:16:06;;;;;;;9.00;8.50;;;;;;;14.26;100.00;65677.19;5118313;28;20208;-70
2022/09/04 06:18:48;;;;;;;8.33;8.07;;;;;;;14.36;100.00;65690.41;5117615;28;20694;-70
2022/09/04 06:21:45;;;;;;;9.53;8.77;;;;;;;14.46;100.00;65696.31;5117898;28;20618;-69
2022/09/04 06:24:42;;;;;;;7.93;7.63;;;;;;;14.58;100.00;65714.88;5117573;28;20208;-69
2022/09/04 06:27:33;;;;;;;8.13;7.93;;;;;;;14.70;100.00;65721.88;5117661;28;20624;-70
2022/09/04 06:30:03;;;;;;;7.33;7.03;;;;;;;;;;5117787;28;20231;-70
2022/09/04 06:32:48;;;;;;;7.63;7.33;;;;;;;;;;5117685;28;20239;-70
2022/09/04 06:35:39;;;;;;;12.17;7.17;;;;;;;14.90;100.00;65746.75;5117369;28;20230;-70
2022/09/04 06:38:26;;;;;;;5.93;5.73;;;;;;;15.04;100.00;65767.00;5117548;28;20224;-70
2022/09/04 06:40:59;;;;;;;5.70;5.60;;;;;;;;;;5117466;28;20236;-70
2022/09/04 06:43:47;;;;;;;5.97;5.63;;;;;;;;;;5117481;28;20628;-70
2022/09/04 06:46:23;;;;;;;5.90;5.80;;;;;;;15.34;100.00;65808.22;5117186;28;20170;-70
2022/09/04 06:48:49;;;;;;;6.23;6.03;;;;;;;;;;5117680;28;20260;-70
2022/09/04 06:51:47;;;;;;;6.33;6.23;;;;;;;15.55;100.00;65817.44;5117033;28;20265;-70
2022/09/04 06:54:50;;;;;;;6.27;5.97;;;;;;;15.68;99.73;65835.09;5117569;28;20609;-70
2022/09/04 06:57:37;;;;;;;5.90;5.77;;;;;;;15.77;99.29;65841.94;5117294;28;20209;-70
2022/09/04 07:00:06;;;;;;;6.83;6.40;;;;;;;;;;5116829;28;20231;-70
2022/09/04 07:02:49;;;;;;;6.03;5.87;;;;;;;15.98;99.62;65862.16;5116809;28;20663;-70
2022/09/04 07:05:34;;;;;;;6.33;6.00;;;;;;;16.11;99.77;65881.31;5117386;28;20183;-70
2022/09/04 07:08:42;;;;;;;6.47;6.27;;;;;;;16.28;99.41;65897.63;5116723;28;20338;-70
2022/09/04 07:11:16;;;;;;;6.07;5.93;;;;;;;16.41;98.31;65909.50;5116745;28;20235;-70
2022/09/04 07:14:13;;;;;;;6.70;6.40;;;;;;;16.49;97.71;65918.41;5116858;28;20261;-70
2022/09/04 07:17:01;;;;;;;6.03;5.93;;;;;;;16.62;97.71;65934.41;5116198;28;20212;-70
2022/09/04 07:19:41;;;;;;;6.30;5.73;;;;;;;;;;5116839;28;20256;-70
2022/09/04 07:22:18;;;;;;;5.87;5.57;;;;;;;;;;5116726;28;20284;-70
2022/09/04 07:24:59;;;;;;;6.03;5.83;;;;;;;;;;5116456;28;20222;-70
2022/09/04 07:27:35;;;;;;;5.80;5.80;;;;;;;16.70;98.34;65936.03;5116490;28;20205;-70
2022/09/04 07:30:06;;;;;;;3.97;3.97;;;;;;;16.75;98.35;65949.47;5116347;28;20205;-70
2022/09/04 07:32:39;;;;;;;6.23;6.03;;;;;;;16.91;97.78;65963.56;5116592;28;20193;-70
2022/09/04 07:35:21;;;;;;;4.53;4.53;;;;;;;16.99;97.13;65975.09;5116797;28;20209;-70
2022/09/04 07:37:50;;;;;;;5.27;5.17;;;;;;;;;;5116208;28;20295;-70
2022/09/04 07:40:20;;;;;;;4.83;4.83;;;;;;;;;;5116049;28;20276;-70
2022/09/04 07:42:53;;;;;;;4.63;4.43;;;;;;;17.12;97.42;65994.28;5116381;28;20272;-70
2022/09/04 07:45:23;;;;;;;5.80;5.33;;;;;;;17.19;97.15;65997.41;5116342;28;20173;-70
2022/09/04 07:48:17;;;;;;;3.80;3.80;;;;;;;17.41;96.66;66018.19;5116532;28;20320;-70
2022/09/04 07:51:02;;;;;;;4.33;4.23;;;;;;;17.53;95.17;66034.75;5106151;28;20280;-70
2022/09/04 07:53:59;;;;;;;4.30;4.10;;;;;;;17.51;95.43;66032.53;5116442;28;20188;-70
2022/09/04 07:57:02;;;;;;;4.40;4.40;;;;;;;17.58;95.19;66040.34;5115973;28;20216;-71
2022/09/04 07:59:48;;;;;;;4.27;4.20;;;;;;;17.77;94.11;66060.97;5116331;28;20209;-70
2022/09/04 08:02:30;;;;;;;3.80;3.80;;;;;;;17.80;93.36;66064.34;5115905;28;20288;-70
2022/09/04 08:04:57;;;;;;;4.93;4.53;;;;;;;;;;5116217;28;20205;-70
2022/09/04 08:07:47;;;;;;;4.30;4.00;;;;;;;;;;5115437;28;20577;-70
2022/09/04 08:10:30;;;;;;;3.67;3.57;;;;;;;;;;5102719;28;20750;-70
2022/09/04 08:13:03;;;;;;;3.73;3.73;;;;;;;18.17;92.43;66103.94;5116071;28;20226;-70
2022/09/04 08:16:09;;;;;;;4.50;4.27;;;;;;;18.29;92.20;66114.69;5115736;28;20208;-70
2022/09/04 08:18:54;;;;;;;3.70;3.70;;;;;;;;;;5068481;28;20295;-70
2022/09/04 08:21:29;;;;;;;4.40;3.83;;;;;;;18.62;91.09;66151.53;5115757;28;20280;-70
2022/09/04 08:24:14;;;;;;;3.00;2.97;;;;;;;18.71;90.18;66163.66;5115821;28;20223;-70
2022/09/04 08:27:15;;;;;;;2.97;2.97;;;;;;;18.91;89.83;66188.63;5115184;28;20216;-71
2022/09/04 08:30:02;;;;;;;4.03;3.83;;;;;;;;;;5115133;28;20205;-70
2022/09/04 08:32:56;;;;;;;3.97;3.87;;;;;;;19.23;87.85;66218.00;5115345;28;20194;-70
2022/09/04 08:35:28;;;;;;;3.37;3.37;;;;;;;;;;5115357;28;20169;-70
2022/09/04 08:38:03;;;;;;;4.40;4.30;;;;;;;;;;5115096;28;20209;-70
2022/09/04 08:40:49;;;;;;;4.20;4.10;;;;;;;19.37;85.95;66233.63;5115412;28;20214;-70
2022/09/04 08:43:48;;;;;;;3.20;3.13;;;;;;;19.42;86.86;66238.66;5114886;28;20631;-70
2022/09/04 08:46:43;;;;;;;2.90;2.80;;;;;;;19.42;86.52;66239.22;5114838;28;20537;-70
2022/09/04 08:49:15;;;;;;;3.20;3.20;;;;;;;;;;5108754;28;20259;-72
2022/09/04 08:52:20;;;;;;;2.87;2.87;;;;;;;19.60;86.31;66258.78;5112561;28;20697;-71
2022/09/04 08:54:59;;;;;;;2.97;2.97;;;;;;;19.79;85.41;66282.09;5102873;28;20220;-70
2022/09/04 08:57:52;;;;;;;3.37;3.37;;;;;;;19.98;84.39;66292.22;5107065;28;20304;-70
2022/09/04 09:00:19;;;;;;;3.10;3.10;;;;;;;;;;5075062;28;20201;-70
2022/09/04 09:03:04;;;;;;;2.33;2.33;;;;;;;;;;5114756;28;20278;-70
2022/09/04 09:05:42;;;;;;;2.60;2.60;;;;;;;20.55;80.64;66363.31;5114669;28;20197;-70
2022/09/04 09:08:39;;;;;;;2.90;2.60;;;;;;;20.64;80.03;66372.25;5113418;28;20236;-70
2022/09/04 09:11:25;;;;;;;2.83;2.70;;;;;;;20.74;79.48;66388.72;5114301;28;20225;-70
2022/09/04 09:14:19;;;;;;;2.27;2.27;;;;;;;20.85;79.46;66395.72;5114646;28;20594;-70
2022/09/04 09:17:18;;;;;;;2.50;2.50;;;;;;;21.03;78.23;66415.88;5113224;28;20233;-71
2022/09/04 09:20:37;;;;;;;2.60;2.60;;;;;;;21.01;77.02;66418.91;5113328;28;20197;-70
2022/09/04 09:23:32;;;;;;;2.83;2.80;;;;;;;20.89;77.84;66403.41;5108062;28;20602;-70
2022/09/04 09:26:29;;;;;;;2.70;2.70;;;;;;;20.94;78.13;66400.53;5109715;28;20213;-70
2022/09/04 09:29:18;;;;;;;2.33;2.33;;;;;;;21.16;78.23;66430.41;5113590;28;20189;-70
2022/09/04 09:32:00;;;;;;;2.57;2.47;;;;;;;;;;5111412;28;20678;-70
2022/09/04 09:34:43;;;;;;;2.67;2.63;;;;;;;;;;5105106;28;20197;-71
2022/09/04 09:37:37;;;;;;;2.20;2.20;;;;;;;21.47;75.72;66466.09;5112730;28;20294;-70
2022/09/04 09:40:07;;;;;;;2.70;2.70;;;;;;;;;;5104142;28;20258;-70
2022/09/04 09:42:46;;;;;;;3.03;2.77;;;;;;;21.66;73.42;66485.25;5107958;28;20209;-70
2022/09/04 09:45:35;;;;;;;2.10;2.10;;;;;;;21.61;74.14;66479.09;5113476;28;20188;-71
2022/09/04 09:48:31;;;;;;;2.17;2.17;;;;;;;21.51;73.97;66471.13;5099632;28;20213;-70
2022/09/04 09:51:12;;;;;;;2.97;2.97;;;;;;;;;;5112025;28;20217;-70
2022/09/04 09:53:38;;;;;;;2.37;2.37;;;;;;;;;;5113814;28;20252;-70
2022/09/04 09:56:16;;;;;;;5.70;2.43;;;;;;;;;;5113144;28;20193;-70
2022/09/04 09:59:01;;;;;;;2.20;2.20;;;;;;;21.96;71.62;66520.38;5111384;28;20215;-70
2022/09/04 10:01:56;;;;;;;2.37;2.37;;;;;;;22.12;71.46;66537.72;5112201;28;20321;-70
2022/09/04 10:04:48;;;;;;;2.97;2.83;;;;;;;;;;5112756;28;20185;-70
2022/09/04 10:07:38;;;;;;;2.80;2.67;;;;;;;22.27;70.74;66553.97;5111506;28;20296;-70
2022/09/04 10:10:42;;;;;;;2.57;2.43;;;;;;;22.41;69.90;66561.72;5110532;28;20181;-70
2022/09/04 10:13:26;;;;;;;2.40;2.40;;;;;;;22.61;69.17;66581.47;5094096;28;20233;-70
2022/09/04 10:16:00;;;;;;;2.37;2.37;;;;;;;;;;5110324;28;20185;-70
2022/09/04 10:18:45;;;;;;;2.25;2.25;;;;;;;;;;5112797;28;20219;-70
2022/09/04 10:21:49;;;;;;;1.98;1.98;;;;;;;23.03;67.51;66635.34;5111947;28;20207;-70
2022/09/04 10:24:27;;;;;;;1.92;1.83;;;;;;;23.22;66.41;66658.75;5107107;28;20302;-70
2022/09/04 10:27:33;;;;;;;2.25;2.25;;;;;;;22.97;66.59;66628.63;5108862;28;20304;-70
2022/09/04 10:30:04;;;;;;;2.20;2.20;;;;;;;;;;5104135;28;20613;-70
2022/09/04 10:32:31;;;;;;;1.73;1.73;;;;;;;22.80;66.47;66605.41;5110107;28;20224;-71
2022/09/04 10:35:02;;;;;;;2.40;2.00;;;;;;;;;;5092943;28;20533;-70
2022/09/04 10:37:54;;;;;;;2.30;2.30;;;;;;;22.97;65.36;66631.84;5092758;28;20244;-71
2022/09/04 10:41:01;;;;;;;1.70;1.70;;;;;;;22.79;65.79;66603.72;5093273;28;20660;-70
2022/09/04 10:43:46;;;;;;;2.20;1.83;;;;;;;;;;5093199;28;20215;-70
2022/09/04 10:46:13;;;;;;;2.03;2.03;;;;;;;;;;5093176;28;20212;-70
2022/09/04 10:48:57;;;;;;;1.73;1.65;;;;;;;;;;5093376;28;20702;-70
2022/09/04 10:51:57;;;;;;;1.95;1.95;;;;;;;22.87;66.50;66620.63;5095210;28;20256;-70
2022/09/04 10:54:46;;;;;;;2.10;2.10;;;;;;;22.88;65.02;66621.75;5096675;28;20221;-70
2022/09/04 10:57:23;;;;;;;1.70;1.67;;;;;;;22.97;64.95;66631.28;5096760;28;20233;-70
2022/09/04 11:00:09;;;;;;;1.95;1.95;;;;;;;22.87;64.89;66618.00;5097030;28;20208;-70
2022/09/04 11:03:02;;;;;;;2.00;1.90;;;;;;;22.90;64.96;66621.34;5096415;28;20618;-70
2022/09/04 11:05:35;;;;;;;1.83;1.83;;;;;;;;;;5097026;28;20174;-70
2022/09/04 11:08:02;;;;;;;2.55;2.55;;;;;;;22.72;65.51;66596.44;5096880;28;20297;-70
2022/09/04 11:10:35;;;;;;;2.22;2.22;;;;;;;;;;5096117;28;20276;-70
2022/09/04 11:13:40;;;;;;;20.27;2.50;;;;;;;22.41;66.45;66567.00;5096864;28;20257;-70
2022/09/04 11:16:12;;;;;;;2.30;2.30;;;;;;;;;;5096826;28;20659;-70
2022/09/04 11:18:45;;;;;;;2.38;2.35;;;;;;;;;;5096127;28;20210;-70
2022/09/04 11:21:50;;;;;;;2.17;2.17;;;;;;;22.42;66.71;66571.31;5096256;28;20247;-70
2022/09/04 11:24:52;;;;;;;2.80;2.70;;;;;;;22.44;64.97;66570.94;5096025;28;20534;-70
2022/09/04 11:27:37;;;;;;;2.20;2.20;;;;;;;;;;5095874;28;20252;-70
2022/09/04 11:30:15;;;;;;;2.55;2.45;;;;;;;;;;5078224;28;20201;-70
2022/09/04 11:33:02;;;;;;;2.87;2.77;;;;;;;22.64;64.79;66587.47;5096214;28;20261;-70
2022/09/04 11:35:41;;;;;;;2.40;2.40;;;;;;;22.54;63.60;66581.56;5095258;28;20532;-70
2022/09/04 11:38:17;;;;;;;3.27;3.00;;;;;;;22.77;63.28;66607.31;5095751;28;20705;-70
2022/09/04 11:40:54;;;;;;;2.83;2.73;;;;;;;;;;5096042;28;20193;-70
2022/09/04 11:43:38;;;;;;;2.60;2.60;;;;;;;23.06;62.61;66639.25;5095707;28;20217;-70
2022/09/04 11:46:26;;;;;;;2.33;2.30;;;;;;;23.09;62.66;66641.53;5095950;28;20202;-70
2022/09/04 11:49:12;;;;;;;2.67;2.58;;;;;;;23.07;62.24;66645.13;5065119;28;20679;-70
2022/09/04 11:52:15;;;;;;;2.53;2.53;;;;;;;23.18;60.06;66654.25;5095787;28;20205;-70
2022/09/04 11:54:53;;;;;;;2.28;2.28;;;;;;;;;;5044669;28;20240;-70
2022/09/04 11:57:41;;;;;;;2.60;2.60;;;;;;;;;;5095692;28;20233;-70
2022/09/04 12:00:12;;;;;;;2.30;2.30;;;;;;;23.20;61.90;66653.84;5095679;28;20212;-70
2022/09/04 12:02:38;;;;;;;1.83;1.83;;;;;;;;;;5094746;28;20671;-70
2022/09/04 12:05:38;;;;;;;2.38;2.28;;;;;;;;;;5095200;28;20192;-70
2022/09/04 12:08:27;;;;;;;2.30;2.30;;;;;;;;;;5095253;28;20205;-70
2022/09/04 12:11:10;;;;;;;2.08;2.08;;;;;;;;;;5095244;28;20281;-70
2022/09/04 12:13:45;;;;;;;2.70;2.70;;;;;;;23.22;58.55;66656.66;5095126;28;20194;-69
2022/09/04 12:16:31;;;;;;;2.28;2.28;;;;;;;;;;5095006;28;20189;-69
2022/09/04 12:19:18;;;;;;;2.22;2.22;;;;;;;;;;5094997;28;20201;-70
2022/09/04 12:22:10;;;;;;;2.35;2.35;;;;;;;23.72;60.30;66713.66;5095392;28;20284;-70
2022/09/04 12:25:07;;;;;;;2.60;2.47;;;;;;;24.00;58.05;66736.53;5094862;28;20201;-70
2022/09/04 12:27:50;;;;;;;2.63;2.42;;;;;;;24.12;57.36;66758.50;5095072;28;20611;-70
2022/09/04 12:30:22;;;;;;;2.60;2.47;;;;;;;;;;5094999;28;20620;-70
2022/09/04 12:32:59;;;;;;;2.13;2.13;;;;;;;24.68;53.57;66817.56;5094730;28;20178;-69
2022/09/04 12:35:38;;;;;;;1.85;1.85;;;;;;;;;;5095178;28;20174;-69
2022/09/04 12:38:23;;;;;;;2.08;1.98;;;;;;;;;;5094465;28;20214;-70
2022/09/04 12:41:00;;;;;;;2.92;2.03;;;;;;;;;;5094586;28;20197;-70
2022/09/04 12:44:00;;;;;;;2.17;2.17;;;;;;;23.98;57.06;66742.25;5094376;28;20285;-70
2022/09/04 12:46:29;;;;;;;2.65;2.55;;;;;;;24.00;57.25;66741.84;5083238;28;20198;-71
2022/09/04 12:49:15;;;;;;;2.45;2.45;;;;;;;23.85;57.51;66718.19;5094374;28;20214;-70
2022/09/04 12:51:55;;;;;;;3.00;3.00;;;;;;;23.88;57.84;66723.66;5094378;28;20206;-70
2022/09/04 12:54:37;;;;;;;2.85;2.85;;;;;;;23.60;58.57;66698.69;5094660;28;20177;-70
2022/09/04 12:57:18;;;;;;;2.72;2.72;;;;;;;23.69;58.88;66708.22;5094243;28;20244;-71
2022/09/04 13:00:11;;;;;;;2.40;2.40;;;;;;;23.65;58.43;66706.41;5094216;28;20201;-71
2022/09/04 13:02:37;;;;;;;2.92;2.72;;;;;;;;;;5095848;28;20881;-74
2022/09/04 13:05:23;;;;;;;2.85;2.75;;;;;;;;;;5110553;28;20227;-71
2022/09/04 13:08:07;;;;;;;2.50;2.40;;;;;;;23.72;57.98;66711.00;5100171;28;20233;-71
2022/09/04 13:10:53;;;;;;;2.38;2.33;;;;;;;23.71;56.91;66709.88;5114269;28;20225;-71
2022/09/04 13:13:23;;;;;;;1.92;1.92;;;;;;;;;;5108389;28;20280;-71
2022/09/04 13:16:20;;;;;;;2.00;2.00;;;;;;;24.15;52.55;66761.34;5109552;28;20293;-71
2022/09/04 13:18:47;;;;;;;1.83;1.83;;;;;;;;;;5108074;28;20710;-71
2022/09/04 13:21:17;;;;;;;1.80;1.80;;;;;;;;;;5114113;28;20264;-70
2022/09/04 13:23:56;;;;;;;1.95;1.95;;;;;;;24.56;53.11;66804.09;5114684;28;20544;-70
2022/09/04 13:26:34;;;;;;;3.03;2.45;;;;;;;;;;5107105;28;20543;-71
2022/09/04 13:29:15;;;;;;;2.28;2.28;;;;;;;;;;5111873;28;20227;-75
2022/09/04 13:32:00;;;;;;;2.28;2.28;;;;;;;;;;5076103;28;20730;-71
2022/09/04 13:34:50;;;;;;;2.38;2.38;;;;;;;;;;5093567;28;20185;-71
2022/09/04 13:37:35;;;;;;;2.10;2.10;;;;;;;;;;5105960;28;20217;-71
2022/09/04 13:40:20;;;;;;;2.67;2.47;;;;;;;24.73;53.53;66817.31;5114182;28;20177;-70
2022/09/04 13:43:09;;;;;;;2.35;2.33;;;;;;;24.73;52.16;66817.31;5113274;28;20679;-71